MAPA DE AEROPUERTO

INFORMACIÓN METAR y TAF

METAR FOR LELN
ADDS - METARS form results

(1028 UTC 05 August 2021)
Data provider http://aviationweather.gov/metar/data/
 
METAR text: LELN 051000Z 25015KT 200V300 CAVOK 22/10 Q1018
Conditions at: LELN (LEON/VIRGEN CAMI, ES) observed 1000 UTC 05 August 2021
Temperature: 22.0°C (72°F)
Dewpoint: 10.0°C (50°F) [RH = 46%]
Pressure (altimeter): 30.06 inches Hg (1018.0 mb)
Winds: from the WSW (250 degrees) at 17 MPH (15 knots; 7.7 m/s)
Visibility: 6 or more miles (10+ km)
Ceiling: ceiling and visibility are OK
Clouds: unknown
Weather: no significant weather observed at this time

METAR text: LELN 050930Z 27012KT 230V310 CAVOK 22/10 Q1018
Conditions at: LELN (LEON/VIRGEN CAMI, ES) observed 0930 UTC 05 August 2021
Temperature: 22.0°C (72°F)
Dewpoint: 10.0°C (50°F) [RH = 46%]
Pressure (altimeter): 30.06 inches Hg (1018.0 mb)
Winds: from the W (270 degrees) at 14 MPH (12 knots; 6.2 m/s)
Visibility: 6 or more miles (10+ km)
Ceiling: ceiling and visibility are OK
Clouds: unknown
Weather: no significant weather observed at this time

Forecast for: LELN (LEON/VIRGEN CAMI, ES)
Text: TAF LELN 050800Z 0509/0609 VRB05KT CAVOK TX27/0515Z TN10/0605Z
Forecast period: 0900 UTC 05 August 2021 to 0900 UTC 06 August 2021
Forecast type: FROM: standard forecast or significant change
Winds: variable direction winds at 6 MPH (5 knots; 2.6 m/s)
Visibility: 6 or more miles (10+ km)
Ceiling: unknown
Clouds: missing
Weather: no significant weather forecast for this period
Text: BECMG 0509/0510 27010KT
Forecast period: 0900 UTC 05 August 2021 to 0900 UTC 06 August 2021
Forecast type: BECOMING: Conditions expected to become as follows by 1000 UTC 05 August 2021
Winds: from the W (270 degrees) at 12 MPH (10 knots; 5.1 m/s)
Visibility: 6 or more miles (10+ km)
Ceiling: unknown
Clouds: missing
Weather: no significant weather forecast for this period
Text: PROB40
Forecast period: 1100 to 2000 UTC 05 August 2021
Forecast type: TEMPORARY: The following changes expected for less than half the time period
Winds: from the W (270 degrees) at 17 MPH (15 knots; 7.7 m/s)
gusting to 34 MPH (30 knots; 15.4 m/s)
Visibility: missing
Ceiling: unknown
Clouds: missing
Weather: no significant weather forecast for this period
Text: TEMPO 0511/0520 27015G30KT
Forecast period: 0200 to 0900 UTC 06 August 2021
Forecast type: TEMPORARY: The following changes expected for less than half the time period
Winds: variable direction winds at 6 MPH (5 knots; 2.6 m/s)
Visibility: missing
Ceiling: unknown
Clouds: missing
Weather: no significant weather forecast for this period